Sao Paulo, Brazil
Current Conditions -  °F | °C
As of 9:00 AM on Friday 24 Oct 2014 (Local Time) from SBMT Reporting Station
Haze Haze  
Wind Chill: 68°   Ceiling: Unl
Heat Index: 68°   Visibility: 3mi
Dew Point: 59°   Wind: 6mph
Humidity: 73%   Direction: 120°ESE
Pressure: 30.09"   Gusts: NA
Location:  23.53°S, 46.63°W
Report Text: SBMT 241100Z 12005KT 5000 HZ NSC 20/15 Q1019
Loading
Personal Weather Stations






























Interactive Weather Map
Tropical Storm Tracking
New forecast layout! Learn more

10-Day Weather Forecast

Advertisements
Track Severe Weather on mobile